EKKO weather

Korsør Airport
Korsør, Zealand, Denmark

Public forecast

Using degrees Celsius for public forecast. Weather courtesy of forecast.io.

Closest aviation weather report (METAR) to Korsør Airport

Report is more than 6 hours old.

Closest report is Avnø Air Base, 24.0 nm (44.5 km) SE. Retrieved 2016/10/04 04:20 UTC (3 years ago):

EKAV 040420Z AUTO ///// 9999NDV NCD ///// Q1039

Closest aviation forecast (TAF) to Korsør Airport

Closest forecast is Copenhagen Kastrup Airport, 51.0 nm (94.4 km) ENE. Retrieved 2020/04/02 18:00 UTC (1 hour ago):

TAF EKCH 021702Z 0218/0318 25020KT 9999 BKN020 TEMPO 0218/0220 27025G35KT 4000 SHRA BKN012CB TEMPO 0220/0316 27020G35KT FEW020CB TEMPO 0316/0318 FEW020CB